• Join FlightAware (Why Join?)
  • Login
  • US Flag 
11:36AM EDT


 

Airport Tracker/Info


-or-


 

Live Flight TrackerFlight Track Log ✈ N28SP ✈ 31-Aug-2013 ✈ MPMG / PAC - KIAH

Flight Track Log - Related Links

Times and Time Zones

All times are in EDT time to prevent confusion due to time zone crossing. See the N28SP flight status page for this flight to view local times or setup timezone preferences in your user account.

Time Position Orientation Groundspeed Altitude Reporting Facility
EDT Latitude Longitude Course Direction KTS MPH feet Rate Location/Type
01:30PM 22.2402 -88.8780 327° Northwest  Level Estimated
01:31PM 22.3170 -88.9371 325° Northwest  Level Estimated
01:32PM 22.3937 -88.9962 325° Northwest  Level Estimated
01:33PM 22.4703 -89.0555 324° Northwest  Level Estimated
01:34PM 22.5470 -89.1148 324° Northwest  Level Estimated
01:35PM 22.6236 -89.1741 324° Northwest  Level Estimated
01:36PM 22.7002 -89.2336 324° Northwest  Level Estimated
01:37PM 22.7768 -89.2930 324° Northwest  Level Estimated
01:38PM 22.8534 -89.3526 324° Northwest  Level Estimated
01:39PM 22.9299 -89.4122 324° Northwest  Level Estimated
01:40PM 23.0064 -89.4719 324° Northwest  Level Estimated
01:41PM 23.0829 -89.5317 324° Northwest  Level Estimated
01:42PM 23.1594 -89.5915 324° Northwest  Level Estimated
01:43PM 23.2358 -89.6514 324° Northwest  Level Estimated
01:44PM 23.3123 -89.7114 324° Northwest  Level Estimated
01:45PM 23.3887 -89.7714 324° Northwest  Level Estimated
01:46PM 23.4651 -89.8315 324° Northwest  Level Estimated
01:47PM 23.5414 -89.8917 324° Northwest  Level Estimated
01:48PM 23.6178 -89.9520 324° Northwest  Level Estimated
01:49PM 23.6941 -90.0123 324° Northwest  Level Estimated
01:50PM 23.7704 -90.0727 324° Northwest  Level Estimated
01:51PM 23.8466 -90.1331 324° Northwest  Level Estimated
01:52PM 23.9229 -90.1937 324° Northwest  Level Estimated
01:53PM 23.9991 -90.2543 324° Northwest  Level Estimated
01:54PM 24.0753 -90.3149 324° Northwest  Level Estimated
01:55PM 24.1515 -90.3757 324° Northwest  Level Estimated
01:56PM 24.2276 -90.4365 324° Northwest  Level Estimated
01:57PM 24.3037 -90.4974 324° Northwest  Level Estimated
01:58PM 24.3798 -90.5583 324° Northwest  Level Estimated
01:59PM 24.4559 -90.6194 324° Northwest  Level Estimated
02:00PM 24.5320 -90.6805 324° Northwest  Level Estimated
02:01PM 24.6080 -90.7417 324° Northwest  Level Estimated
02:02PM 24.6840 -90.8029 324° Northwest  Level Estimated
02:03PM 24.7600 -90.8643 324° Northwest  Level Estimated
02:04PM 24.8359 -90.9257 324° Northwest  Level Estimated
02:05PM 24.9119 -90.9872 324° Northwest  Level Estimated
02:06PM 24.9878 -91.0487 324° Northwest  Level Estimated
02:07PM 25.0636 -91.1104 324° Northwest  Level Estimated
02:08PM 25.1395 -91.1721 324° Northwest  Level Estimated
02:09PM 25.2153 -91.2339 324° Northwest  Level Estimated
02:10PM 25.2911 -91.2957 324° Northwest  Level Estimated
02:11PM 25.3669 -91.3577 324° Northwest  Level Estimated
02:12PM 25.4426 -91.4197 324° Northwest  Level Estimated
02:13PM 25.5184 -91.4818 323° Northwest  Level Estimated
02:14PM 25.5940 -91.5440 323° Northwest  Level Estimated
02:15PM 25.6697 -91.6062 323° Northwest  Level Estimated
02:16PM 25.7453 -91.6686 323° Northwest  Level Estimated
02:17PM 25.8210 -91.7310 323° Northwest  Level Estimated
02:18PM 25.8966 -91.7935 323° Northwest  Level Estimated
02:19PM 25.9721 -91.8560 323° Northwest  Level Estimated
02:19PM 26.4908 -91.4056 323° Northwest 388 447 45,000  Level Houston Center
02:20PM 26.0476 -91.9187 323° Northwest  Level Estimated
02:21PM 26.5692 -91.4692 324° Northwest 361 415 45,000  Level Houston Center
02:21PM 26.1232 -91.9814 323° Northwest  Level Estimated
02:22PM 26.1986 -92.0442 323° Northwest  Level Estimated
02:22PM 26.6467 -91.5253 327° Northwest 348 400 44,900  Level Houston Center
02:23PM 26.2741 -92.1071 323° Northwest  Level Estimated
02:23PM 26.7244 -91.5889 324° Northwest 344 396 45,000  Level Houston Center
02:24PM 26.3495 -92.1701 323° Northwest  Level Estimated
02:24PM 26.8175 -91.6614 325° Northwest 341 392 45,000  Level Houston Center
02:25PM 26.4249 -92.2332 323° Northwest  Level Estimated
02:25PM 26.8889 -91.7175 325° Northwest 343 395 45,000  Level Houston Center
02:26PM 26.9681 -91.7842 323° Northwest 351 404 45,000  Level Houston Center
02:27PM 27.0461 -91.8458 325° Northwest 347 399 45,000  Level Houston Center
02:28PM 27.1403 -91.9200 325° Northwest 345 397 45,000  Level Houston Center
02:29PM 27.2194 -91.9861 323° Northwest 350 403 45,000  Level Houston Center
02:30PM 27.2983 -92.0489 325° Northwest 350 403 45,000  Level Houston Center
02:31PM 27.3767 -92.1119 324° Northwest 348 400 45,000  Level Houston Center
02:32PM 27.4550 -92.1761 324° Northwest 347 399 45,000  Level Houston Center
02:33PM 27.5333 -92.2408 324° Northwest 348 400 45,000  Level Houston Center
02:34PM 27.6264 -92.3158 324° Northwest 345 397 45,000  Level Houston Center
02:35PM 27.7056 -92.3800 324° Northwest 349 402 45,000  Level Houston Center
02:36PM 27.7842 -92.4456 324° Northwest 351 404 45,000  Level Houston Center
02:37PM 27.8636 -92.5100 324° Northwest 351 404 45,000  Level Houston Center
02:38PM 27.9444 -92.5708 326° Northwest 350 403 45,000  Level Houston Center
02:39PM 28.0206 -92.6397 321° Northwest 350 403 45,000  Level Houston Center
02:40PM 28.1000 -92.7033 325° Northwest 350 403 45,000  Level Houston Center
02:41PM 28.1942 -92.7817 324° Northwest 349 402 45,000  Level Houston Center
02:42PM 28.2722 -92.8475 323° Northwest 349 402 45,000  Level Houston Center
02:43PM 28.3508 -92.9128 324° Northwest 350 403 45,000 -300 Level Houston Center
02:44PM 28.4300 -92.9792 324° Northwest 355 409 44,400 -720 Descending Houston Center
02:45PM 28.5144 -93.0461 325° Northwest 367 422 43,600 -960 Descending Houston Center
02:46PM 28.6006 -93.1186 324° Northwest 382 440 42,500 -1,020 Descending Houston Center
02:47PM 28.6844 -93.1897 323° Northwest 377 434 41,500 -1,080 Descending Houston Center
02:48PM 28.7847 -93.2736 324° Northwest 373 429 40,300 -1,080 Descending Houston Center
02:49PM 28.8681 -93.3439 324° Northwest 372 428 39,300 -1,020 Descending Houston Center
02:50PM 28.9511 -93.4142 323° Northwest 372 428 38,300 -1,020 Descending Houston Center
02:51PM 29.0331 -93.4836 323° Northwest 369 425 37,300 -1,020 Descending Houston Center
02:52PM 29.1164 -93.5542 324° Northwest 371 427 36,300 -1,020 Descending Houston Center
02:53PM 29.2003 -93.6239 324° Northwest 371 427 35,300 -1,980 Descending Houston Center
02:54PM 29.2850 -93.6972 323° Northwest 380 437 32,300 -2,940 Descending Houston Center
02:56PM 29.3708 -93.7686 324° Northwest 381 438 29,400 -3,000 Descending Houston Center
02:57PM 29.4722 -93.8519 324° Northwest 372 428 26,200 -2,640 Descending Houston Center
02:58PM 29.5289 -93.9403 306° West 366 421 24,000 -2,100 Descending Houston Center
02:59PM 29.4750 -94.0272 235° Southwest 361 415 22,000 -3,420 Descending Houston Center
03:00PM 29.4519 -94.1228 255° West 344 396 17,000 -5,100 Descending Houston Center
03:00PM 29.4803 -94.1839 298° West 335 386 14,100 -3,240 Descending Houston Center
03:01PM 29.4994 -94.2486 289° West 328 377 13,000 -780 Descending Houston Center
03:02PM 29.5222 -94.3142 292° West 319 367 13,000 -900 Level Houston Center
03:03PM 29.5583 -94.4044 295° West 313 360 11,400 -2,220 Descending Houston Center
03:04PM 29.6086 -94.5231 296° West 311 358 8,300 -2,640 Descending Houston Center
03:05PM 29.6531 -94.5847 310° West 303 349 6,000 -1,200 Descending Houston Center
03:06PM 29.7100 -94.6414 319° Northwest 277 319 6,000  Level Houston Center
03:07PM 29.7647 -94.6978 318° Northwest 270 311 6,000 -300 Level Houston Center
03:08PM 29.8128 -94.7469 318° Northwest 239 275 5,500 -900 Descending Houston Center
03:09PM 29.8619 -94.7975 318° Northwest 239 275 4,200 -720 Descending Houston Center
03:10PM 29.9183 -94.8569 318° Northwest 222 255 4,000 -120 Descending Houston Center
03:11PM 29.9581 -94.8978 318° Northwest 208 239 4,000 -240 Level Houston Center
03:12PM 29.9806 -94.9558 294° West 207 238 3,600 -960 Descending Houston Center
03:13PM 29.9769 -95.0233 266° West 211 243 2,100 -840 Descending Houston Center
03:14PM 29.9772 -95.0811 270° West 175 201 2,000 -60 Descending Houston Center
03:15PM 29.9772 -95.1464 270° West 190 219 2,000 -120 Level Houston Center
03:16PM 29.9778 -95.1992 271° West 162 186 1,800 -480 Descending Houston Center
03:17PM 29.9783 -95.2486 271° West 172 198 1,000 -720 Descending Houston Center
03:18PM 29.9789 -95.2947 271° West 159 183 400 -600 Descending Houston Center
03:20PM 29.9833 -95.3333 311° West  Level FlightAware Approximate